createdAt,value
2018-08-23T00:00:05.372Z,0
2018-08-23T00:01:15.650Z,0
2018-08-23T00:02:25.882Z,0
2018-08-23T00:03:36.274Z,0
2018-08-23T00:04:46.234Z,0
2018-08-23T00:05:56.342Z,0
2018-08-23T00:07:06.471Z,0
2018-08-23T00:08:16.087Z,0
2018-08-23T00:09:26.178Z,0
2018-08-23T00:10:36.381Z,0
2018-08-23T00:11:46.494Z,0
2018-08-23T00:12:56.585Z,0
2018-08-23T00:14:06.586Z,0
2018-08-23T00:15:16.683Z,0
2018-08-23T00:16:26.742Z,0
2018-08-23T00:17:36.817Z,0
2018-08-23T00:18:46.919Z,0
2018-08-23T00:19:57.001Z,0
2018-08-23T00:21:07.069Z,0
2018-08-23T00:22:17.146Z,0
2018-08-23T00:23:27.224Z,0
2018-08-23T00:24:37.044Z,0
2018-08-23T00:25:47.132Z,0
2018-08-23T00:26:57.231Z,0
2018-08-23T00:28:07.980Z,0
2018-08-23T00:29:17.873Z,0
2018-08-23T00:30:27.713Z,0
2018-08-23T00:31:37.549Z,0
2018-08-23T00:32:47.640Z,0
2018-08-23T00:33:57.724Z,0
2018-08-23T00:35:07.801Z,0
2018-08-23T00:36:17.639Z,0
2018-08-23T00:37:27.731Z,0
2018-08-23T00:38:37.838Z,0
2018-08-23T00:39:47.706Z,0
2018-08-23T00:40:57.775Z,0
2018-08-23T00:42:07.846Z,0
2018-08-23T00:43:17.981Z,0
2018-08-23T00:44:28.054Z,0
2018-08-23T00:45:38.124Z,0
2018-08-23T00:46:48.194Z,0
2018-08-23T00:47:57.767Z,0
2018-08-23T00:49:07.577Z,0
2018-08-23T00:50:17.427Z,0
2018-08-23T00:51:27.270Z,0
2018-08-23T00:52:37.362Z,0
2018-08-23T00:53:47.439Z,0
2018-08-23T00:54:57.544Z,0
2018-08-23T00:56:07.214Z,0
2018-08-23T00:57:17.117Z,0
2018-08-23T00:58:27.203Z,0
2018-08-23T00:59:37.295Z,0
2018-08-23T01:00:47.367Z,0
2018-08-23T01:01:57.443Z,0
2018-08-23T01:03:07.327Z,0
2018-08-23T01:04:17.415Z,0
2018-08-23T01:05:27.525Z,0
2018-08-23T01:06:37.613Z,0
2018-08-23T01:07:47.695Z,0
2018-08-23T01:08:57.511Z,0
2018-08-23T01:10:07.339Z,0
2018-08-23T01:11:17.149Z,0
2018-08-23T01:12:26.989Z,0
2018-08-23T01:13:36.797Z,0
2018-08-23T01:14:46.930Z,0
2018-08-23T01:15:57.014Z,0
2018-08-23T01:17:07.449Z,0
2018-08-23T01:18:17.191Z,0
2018-08-23T01:19:27.323Z,0
2018-08-23T01:20:37.212Z,0
2018-08-23T01:21:47.045Z,0
2018-08-23T01:22:56.888Z,0
2018-08-23T01:24:06.764Z,0
2018-08-23T01:25:16.844Z,0
2018-08-23T01:26:27.007Z,0
2018-08-23T01:27:37.092Z,0
2018-08-23T01:28:47.161Z,0
2018-08-23T01:29:57.236Z,0
2018-08-23T01:31:07.073Z,0
2018-08-23T01:32:17.162Z,0
2018-08-23T01:33:27.253Z,0
2018-08-23T01:34:37.333Z,0
2018-08-23T01:35:47.171Z,0
2018-08-23T01:36:57.237Z,0
2018-08-23T01:38:07.357Z,0
2018-08-23T01:39:17.445Z,0
2018-08-23T01:40:27.528Z,0
2018-08-23T01:41:37.604Z,0
2018-08-23T01:42:47.696Z,0
2018-08-23T01:43:57.808Z,0
2018-08-23T01:45:07.621Z,0
2018-08-23T01:46:17.430Z,0
2018-08-23T01:47:27.497Z,0
2018-08-23T01:48:37.574Z,0
2018-08-23T01:49:47.647Z,0
2018-08-23T01:50:57.768Z,0
2018-08-23T01:52:07.851Z,0
2018-08-23T01:53:17.926Z,0
2018-08-23T01:54:27.732Z,0
2018-08-23T01:55:37.875Z,0
2018-08-23T01:56:47.692Z,0
2018-08-23T01:57:57.235Z,0
2018-08-23T01:59:07.342Z,0
2018-08-23T02:00:17.424Z,0
2018-08-23T02:01:27.504Z,0
2018-08-23T02:02:37.571Z,0
2018-08-23T02:03:47.661Z,0
2018-08-23T02:04:57.523Z,0
2018-08-23T02:06:07.672Z,0
2018-08-23T02:07:17.805Z,0
2018-08-23T02:08:27.899Z,0
2018-08-23T02:09:37.972Z,0
2018-08-23T02:10:48.062Z,0
2018-08-23T02:11:58.148Z,0
2018-08-23T02:13:08.011Z,0
2018-08-23T02:14:18.099Z,0
2018-08-23T02:15:28.175Z,0
2018-08-23T02:16:38.263Z,0
2018-08-23T02:17:48.336Z,0
2018-08-23T02:18:58.407Z,0
2018-08-23T02:20:08.219Z,0
2018-08-23T02:21:18.307Z,0
2018-08-23T02:22:28.387Z,0
2018-08-23T02:23:38.267Z,0
2018-08-23T02:24:48.347Z,0
2018-08-23T02:25:58.433Z,0
2018-08-23T02:27:08.518Z,0
2018-08-23T02:28:18.338Z,0
2018-08-23T02:29:28.423Z,0
2018-08-23T02:30:38.361Z,0
2018-08-23T02:31:48.433Z,0
2018-08-23T02:32:58.523Z,0
2018-08-23T02:34:08.332Z,0
2018-08-23T02:35:18.404Z,0
2018-08-23T02:36:28.503Z,0
2018-08-23T02:37:38.581Z,0
2018-08-23T02:38:48.688Z,0
2018-08-23T02:39:58.768Z,0
2018-08-23T02:41:08.860Z,0
2018-08-23T02:42:18.983Z,0
2018-08-23T02:43:28.559Z,0
2018-08-23T02:44:38.825Z,0
2018-08-23T02:45:48.364Z,0
2018-08-23T02:46:58.439Z,0
2018-08-23T02:48:08.540Z,0
2018-08-23T02:49:18.618Z,0
2018-08-23T02:50:28.690Z,0
2018-08-23T02:51:38.496Z,0
2018-08-23T02:52:48.566Z,0
2018-08-23T02:53:58.363Z,0
2018-08-23T02:55:08.433Z,0
2018-08-23T02:56:18.509Z,0
2018-08-23T02:57:28.580Z,0
2018-08-23T02:58:38.399Z,0
2018-08-23T02:59:48.481Z,0
2018-08-23T03:00:58.564Z,0
2018-08-23T03:02:08.668Z,0
2018-08-23T03:35:10.764Z,0
2018-08-23T03:36:20.857Z,0
2018-08-23T03:37:30.916Z,0
2018-08-23T03:38:41.033Z,0
2018-08-23T03:39:51.107Z,0
2018-08-23T03:41:01.186Z,0
2018-08-23T03:42:11.256Z,0
2018-08-23T03:43:21.334Z,0
2018-08-23T03:44:31.145Z,0
2018-08-23T03:45:40.972Z,0
2018-08-23T03:46:51.105Z,0
2018-08-23T03:48:01.170Z,0
2018-08-23T03:49:11.055Z,0
2018-08-23T03:50:20.868Z,0
2018-08-23T03:51:30.700Z,0
2018-08-23T03:52:41.279Z,0
2018-08-23T03:53:51.356Z,0
2018-08-23T03:55:01.203Z,0
2018-08-23T03:56:11.020Z,0
2018-08-23T03:57:20.841Z,5
2018-08-23T03:58:30.982Z,5
2018-08-23T03:59:41.071Z,5
2018-08-23T04:00:51.386Z,5
2018-08-23T04:02:01.447Z,5
2018-08-23T04:03:11.537Z,5
2018-08-23T04:04:21.696Z,5
2018-08-23T04:05:31.523Z,10
2018-08-23T04:06:41.606Z,10
2018-08-23T04:07:51.703Z,10
2018-08-23T04:09:01.786Z,10
2018-08-23T04:10:11.869Z,10
2018-08-23T04:11:21.933Z,15
2018-08-23T04:12:32.000Z,15
2018-08-23T04:13:41.819Z,15
2018-08-23T04:14:51.902Z,15
2018-08-23T04:16:01.770Z,20
2018-08-23T04:17:11.890Z,20
2018-08-23T04:18:21.985Z,20
2018-08-23T04:19:32.072Z,20
2018-08-23T04:20:42.155Z,25
2018-08-23T04:21:52.237Z,25
2018-08-23T04:23:02.902Z,30
2018-08-23T04:24:12.724Z,35
2018-08-23T04:25:22.556Z,30
2018-08-23T04:26:32.637Z,30
2018-08-23T04:27:42.733Z,35
2018-08-23T04:28:52.805Z,40
2018-08-23T04:30:02.891Z,35
2018-08-23T04:31:12.705Z,40
2018-08-23T04:32:22.506Z,40
2018-08-23T04:33:32.377Z,45
2018-08-23T04:34:42.466Z,50
2018-08-23T04:35:52.281Z,65
2018-08-23T04:37:02.351Z,80
2018-08-23T04:38:12.418Z,110
2018-08-23T04:39:22.524Z,115
2018-08-23T04:40:32.594Z,120
2018-08-23T04:41:42.681Z,130
2018-08-23T04:42:52.487Z,135
2018-08-23T04:44:02.563Z,135
2018-08-23T04:45:12.632Z,140
2018-08-23T04:46:22.701Z,145
2018-08-23T04:47:32.774Z,140
2018-08-23T04:48:42.858Z,135
2018-08-23T04:49:52.942Z,155
2018-08-23T04:51:03.267Z,165
2018-08-23T04:52:13.085Z,170
2018-08-23T04:53:23.157Z,180
2018-08-23T04:54:33.228Z,175
2018-08-23T04:55:43.050Z,185
2018-08-23T04:56:53.216Z,190
2018-08-23T04:58:03.337Z,195
2018-08-23T04:59:13.417Z,195
2018-08-23T05:00:23.513Z,190
2018-08-23T05:01:33.327Z,190
2018-08-23T05:02:43.409Z,200
2018-08-23T05:03:53.268Z,200
2018-08-23T05:05:03.347Z,215
2018-08-23T05:06:13.168Z,210
2018-08-23T05:07:23.257Z,195
2018-08-23T05:08:32.805Z,190
2018-08-23T05:09:42.636Z,210
2018-08-23T05:10:52.447Z,220
2018-08-23T05:12:02.514Z,225
2018-08-23T05:13:12.621Z,230
2018-08-23T05:14:22.695Z,210
2018-08-23T05:15:32.519Z,210
2018-08-23T05:16:42.334Z,215
2018-08-23T05:17:52.442Z,220
2018-08-23T05:19:02.541Z,195
2018-08-23T05:20:12.717Z,215
2018-08-23T05:21:22.804Z,215
2018-08-23T05:22:32.890Z,215
2018-08-23T05:23:42.751Z,225
2018-08-23T05:24:52.847Z,220
2018-08-23T05:26:03.230Z,190
2018-08-23T05:27:13.059Z,185
2018-08-23T05:28:23.165Z,190
2018-08-23T05:29:32.997Z,205
2018-08-23T05:30:43.105Z,200
2018-08-23T05:31:52.668Z,205
2018-08-23T05:33:02.879Z,185
2018-08-23T05:34:12.987Z,200
2018-08-23T05:35:23.066Z,190
2018-08-23T05:36:33.152Z,185
2018-08-23T05:37:43.231Z,185
2018-08-23T05:38:53.043Z,200
2018-08-23T05:40:02.870Z,210
2018-08-23T05:41:12.947Z,200
2018-08-23T05:42:22.783Z,220
2018-08-23T05:43:32.866Z,205
2018-08-23T05:44:42.944Z,150
2018-08-23T05:45:53.022Z,125
2018-08-23T05:47:03.121Z,125
2018-08-23T05:48:13.204Z,125
2018-08-23T05:49:23.288Z,150
2018-08-23T05:50:33.372Z,160
2018-08-23T05:51:43.430Z,145
2018-08-23T05:52:53.249Z,115
2018-08-23T05:54:03.343Z,110
2018-08-23T05:55:13.459Z,105
2018-08-23T05:56:23.529Z,100
2018-08-23T05:57:33.623Z,100
2018-08-23T05:58:43.709Z,95
2018-08-23T05:59:53.803Z,100
2018-08-23T06:01:03.625Z,95
2018-08-23T06:02:13.457Z,105
2018-08-23T06:03:23.545Z,110
2018-08-23T06:04:33.356Z,105
2018-08-23T06:05:43.443Z,105
2018-08-23T06:06:53.520Z,110
2018-08-23T06:08:03.075Z,120
2018-08-23T06:09:13.141Z,140
2018-08-23T06:10:22.708Z,150
2018-08-23T06:11:32.523Z,155
2018-08-23T06:12:42.389Z,150
2018-08-23T06:13:52.203Z,135
2018-08-23T06:15:02.277Z,140
2018-08-23T06:16:12.124Z,140
2018-08-23T06:17:22.193Z,140
2018-08-23T06:18:32.316Z,145
2018-08-23T06:19:42.140Z,145
2018-08-23T06:20:52.225Z,150
2018-08-23T06:22:02.293Z,150
2018-08-23T06:23:12.116Z,155
2018-08-23T06:24:22.005Z,155
2018-08-23T06:25:31.326Z,155
2018-08-23T06:26:41.133Z,160
2018-08-23T06:27:50.943Z,160
2018-08-23T06:29:01.017Z,160
2018-08-23T06:30:10.573Z,160
2018-08-23T06:31:20.405Z,160
2018-08-23T06:32:30.235Z,160
2018-08-23T06:33:40.727Z,160
2018-08-23T06:34:50.718Z,165
2018-08-23T06:36:00.543Z,165
2018-08-23T06:37:10.104Z,165
2018-08-23T06:38:19.666Z,160
2018-08-23T06:39:29.477Z,165
2018-08-23T06:40:39.022Z,155
2018-08-23T06:41:48.575Z,155
2018-08-23T06:42:58.376Z,155
2018-08-23T06:44:08.188Z,150
2018-08-23T06:45:17.481Z,150
2018-08-23T06:46:27.311Z,155
2018-08-23T06:47:37.126Z,150
2018-08-23T06:48:47.080Z,150
2018-08-23T06:49:56.371Z,150
2018-08-23T06:51:06.065Z,150
2018-08-23T06:52:16.382Z,145
2018-08-23T06:53:26.505Z,150
2018-08-23T06:54:36.054Z,160
2018-08-23T06:55:45.884Z,155
2018-08-23T06:56:55.735Z,160
2018-08-23T06:58:05.286Z,160
2018-08-23T06:59:15.114Z,160
2018-08-23T07:00:24.928Z,160
2018-08-23T07:01:35.214Z,160
2018-08-23T07:02:44.530Z,160
2018-08-23T07:03:54.684Z,160
2018-08-23T07:05:04.784Z,165
2018-08-23T07:06:14.627Z,165
2018-08-23T07:07:24.189Z,165
2018-08-23T07:08:34.056Z,165
2018-08-23T07:09:43.673Z,170
2018-08-23T07:10:52.964Z,170
2018-08-23T07:12:02.822Z,170
2018-08-23T07:13:12.902Z,175
2018-08-23T07:14:22.735Z,170
2018-08-23T07:15:32.589Z,175
2018-08-23T07:16:42.431Z,175
2018-08-23T07:17:52.979Z,170
2018-08-23T07:19:02.813Z,170
2018-08-23T07:20:12.649Z,170
2018-08-23T07:21:22.236Z,170
2018-08-23T07:22:32.440Z,175
2018-08-23T07:23:42.271Z,175
2018-08-23T07:24:52.100Z,175
2018-08-23T07:26:02.224Z,175
2018-08-23T07:27:12.119Z,175
2018-08-23T07:28:21.935Z,175
2018-08-23T07:29:31.506Z,175
2018-08-23T07:30:41.613Z,175
2018-08-23T07:31:51.699Z,175
2018-08-23T07:33:01.639Z,175
2018-08-23T07:34:11.495Z,175
2018-08-23T07:35:21.625Z,180
2018-08-23T07:36:31.771Z,180
2018-08-23T07:37:41.853Z,180
2018-08-23T07:38:51.938Z,175
2018-08-23T07:40:02.150Z,175
2018-08-23T07:41:12.236Z,175
2018-08-23T07:42:22.412Z,175
2018-08-23T07:43:32.540Z,180
2018-08-23T07:44:42.743Z,175
2018-08-23T07:45:52.836Z,175
2018-08-23T07:47:02.928Z,175
2018-08-23T07:48:12.773Z,175
2018-08-23T07:49:22.995Z,170
2018-08-23T07:50:33.094Z,170
2018-08-23T07:51:43.214Z,170
2018-08-23T07:52:53.911Z,170
2018-08-23T07:54:04.148Z,175
2018-08-23T07:55:13.993Z,175
2018-08-23T07:56:23.811Z,175
2018-08-23T07:57:33.625Z,180
2018-08-23T07:58:43.703Z,175
2018-08-23T07:59:53.529Z,180
2018-08-23T08:01:03.349Z,180
2018-08-23T08:02:13.173Z,180
2018-08-23T08:03:23.252Z,180
2018-08-23T08:04:33.350Z,180
2018-08-23T08:05:43.429Z,180
2018-08-23T08:06:53.517Z,180
2018-08-23T08:08:03.616Z,185
2018-08-23T08:09:13.429Z,185
2018-08-23T08:10:23.512Z,185
2018-08-23T08:11:33.591Z,185
2018-08-23T08:12:43.471Z,185
2018-08-23T08:13:53.590Z,185
2018-08-23T08:15:04.661Z,185
2018-08-23T08:16:14.390Z,185
2018-08-23T08:17:24.508Z,185
2018-08-23T08:18:34.591Z,185
2018-08-23T08:19:44.422Z,185
2018-08-23T08:20:54.582Z,185
2018-08-23T08:22:04.494Z,185
2018-08-23T08:23:14.597Z,185
2018-08-23T08:24:24.688Z,185
2018-08-23T08:25:34.766Z,185
2018-08-23T08:26:44.872Z,180
2018-08-23T08:27:54.749Z,180
2018-08-23T08:29:04.838Z,180
2018-08-23T08:30:14.920Z,180
2018-08-23T08:31:25.024Z,180
2018-08-23T08:32:35.135Z,180
2018-08-23T08:33:44.964Z,180
2018-08-23T08:34:55.064Z,180
2018-08-23T08:36:05.177Z,180
2018-08-23T08:37:15.279Z,180
2018-08-23T08:38:25.405Z,180
2018-08-23T08:39:35.516Z,180
2018-08-23T08:40:45.640Z,180
2018-08-23T08:41:55.814Z,180
2018-08-23T08:43:05.931Z,175
2018-08-23T08:44:16.042Z,180
2018-08-23T08:45:26.195Z,180
2018-08-23T08:46:36.014Z,180
2018-08-23T08:47:46.090Z,180
2018-08-23T08:48:55.899Z,180
2018-08-23T08:50:05.476Z,190
2018-08-23T08:51:15.617Z,190
2018-08-23T08:52:25.714Z,190
2018-08-23T08:53:35.812Z,190
2018-08-23T08:54:45.882Z,185
2018-08-23T08:55:55.694Z,185
2018-08-23T08:57:06.430Z,185
2018-08-23T08:58:16.319Z,185
2018-08-23T08:59:26.431Z,185
2018-08-23T09:00:36.556Z,185
2018-08-23T09:01:46.648Z,185
2018-08-23T09:02:56.849Z,185
2018-08-23T09:04:06.418Z,190
2018-08-23T09:05:15.983Z,190
2018-08-23T09:06:26.095Z,185
2018-08-23T09:07:36.180Z,185
2018-08-23T09:08:46.085Z,190
2018-08-23T09:09:56.655Z,190
2018-08-23T09:11:06.863Z,190
2018-08-23T09:12:16.973Z,190
2018-08-23T09:13:27.066Z,190
2018-08-23T09:14:36.943Z,190
2018-08-23T09:15:47.022Z,190
2018-08-23T09:16:57.112Z,185
2018-08-23T09:18:07.233Z,190
2018-08-23T09:19:17.342Z,190
2018-08-23T09:20:27.657Z,190
2018-08-23T09:21:38.041Z,190
2018-08-23T09:22:48.140Z,190
2018-08-23T09:23:57.950Z,190
2018-08-23T09:25:07.860Z,190
2018-08-23T09:26:17.980Z,190
2018-08-23T09:27:28.330Z,190
2018-08-23T09:28:38.391Z,190
2018-08-23T09:29:48.482Z,190
2018-08-23T09:30:58.591Z,185
2018-08-23T09:32:08.678Z,190
2018-08-23T09:33:18.774Z,190
2018-08-23T09:34:28.878Z,190
2018-08-23T09:35:39.067Z,190
2018-08-23T09:36:49.177Z,190
2018-08-23T09:37:59.719Z,185
2018-08-23T09:39:09.929Z,190
2018-08-23T09:40:20.002Z,190
2018-08-23T09:41:29.884Z,190
2018-08-23T09:42:39.975Z,190
2018-08-23T09:43:50.079Z,190
2018-08-23T09:45:00.284Z,190
2018-08-23T09:46:10.402Z,190
2018-08-23T09:47:20.559Z,190
2018-08-23T09:48:30.642Z,190
2018-08-23T09:49:40.735Z,190
2018-08-23T09:50:51.298Z,190
2018-08-23T09:52:01.436Z,190
2018-08-23T09:53:11.271Z,190
2018-08-23T09:54:21.368Z,190
2018-08-23T09:55:31.541Z,190
2018-08-23T09:56:42.201Z,190
2018-08-23T09:57:52.343Z,190
2018-08-23T09:59:02.608Z,190
2018-08-23T10:00:12.710Z,190
2018-08-23T10:01:22.866Z,190
2018-08-23T10:02:32.954Z,190
2018-08-23T10:03:42.786Z,190
2018-08-23T10:04:53.330Z,190
2018-08-23T10:06:03.177Z,190
2018-08-23T10:07:13.374Z,190
2018-08-23T10:08:23.498Z,190
2018-08-23T10:09:33.618Z,195
2018-08-23T10:10:43.750Z,195
2018-08-23T10:11:54.319Z,195
2018-08-23T10:13:04.552Z,195
2018-08-23T10:14:14.647Z,200
2018-08-23T10:15:24.739Z,200
2018-08-23T10:16:34.835Z,195
2018-08-23T10:17:44.938Z,195
2018-08-23T10:18:55.140Z,200
2018-08-23T10:20:05.253Z,195
2018-08-23T10:21:15.352Z,195
2018-08-23T10:22:25.456Z,195
2018-08-23T10:23:35.022Z,195
2018-08-23T10:24:44.859Z,195
2018-08-23T10:25:55.012Z,195
2018-08-23T10:27:05.113Z,195
2018-08-23T10:28:15.235Z,195
2018-08-23T10:29:25.348Z,195
2018-08-23T10:30:35.508Z,195
2018-08-23T10:31:45.316Z,195
2018-08-23T10:32:55.160Z,195
2018-08-23T10:34:05.229Z,195
2018-08-23T10:35:15.042Z,195
2018-08-23T10:36:25.146Z,195
2018-08-23T10:37:35.245Z,195
2018-08-23T10:38:45.356Z,195
2018-08-23T10:39:55.194Z,195
2018-08-23T10:41:05.024Z,195
2018-08-23T10:42:14.917Z,200
2018-08-23T10:43:24.997Z,205
2018-08-23T10:44:35.067Z,200
2018-08-23T10:45:45.216Z,200
2018-08-23T10:46:55.314Z,195
2018-08-23T10:48:05.204Z,195
2018-08-23T10:49:15.322Z,200
2018-08-23T10:50:25.173Z,200
2018-08-23T10:51:35.273Z,200
2018-08-23T10:52:45.374Z,205
2018-08-23T10:53:55.535Z,205
2018-08-23T10:55:05.626Z,205
2018-08-23T10:56:15.195Z,205
2018-08-23T10:57:25.037Z,205
2018-08-23T10:58:35.134Z,205
2018-08-23T10:59:45.245Z,205
2018-08-23T11:00:55.374Z,205
2018-08-23T11:02:05.482Z,210
2018-08-23T11:03:15.611Z,210
2018-08-23T11:04:25.689Z,210
2018-08-23T11:05:35.804Z,210
2018-08-23T11:06:45.895Z,210
2018-08-23T11:07:55.990Z,215
2018-08-23T11:09:06.118Z,210
2018-08-23T11:10:16.213Z,210
2018-08-23T11:11:26.330Z,210
2018-08-23T11:12:36.157Z,210
2018-08-23T11:13:46.248Z,215
2018-08-23T11:14:56.338Z,220
2018-08-23T11:16:06.158Z,215
2018-08-23T11:17:17.119Z,215
2018-08-23T11:18:26.845Z,215
2018-08-23T11:19:36.410Z,200
2018-08-23T11:20:46.482Z,215
2018-08-23T11:21:56.594Z,200
2018-08-23T11:23:07.014Z,200
2018-08-23T11:24:16.817Z,215
2018-08-23T11:25:26.640Z,220
2018-08-23T11:26:36.466Z,220
2018-08-23T11:27:46.307Z,210
2018-08-23T11:28:56.415Z,230
2018-08-23T11:30:06.974Z,230
2018-08-23T11:31:17.064Z,230
2018-08-23T11:32:26.883Z,235
2018-08-23T11:33:36.976Z,225
2018-08-23T11:34:47.170Z,220
2018-08-23T11:35:57.255Z,220
2018-08-23T11:37:07.359Z,220
2018-08-23T11:38:17.490Z,215
2018-08-23T11:39:27.315Z,225
2018-08-23T11:40:37.402Z,225
2018-08-23T11:41:47.498Z,230
2018-08-23T11:42:58.085Z,230
2018-08-23T11:44:07.903Z,230
2018-08-23T11:45:17.987Z,230
2018-08-23T11:46:28.129Z,210
2018-08-23T11:47:38.231Z,220
2018-08-23T11:48:48.552Z,225
2018-08-23T11:49:58.676Z,225
2018-08-23T11:51:08.774Z,225
2018-08-23T11:52:18.650Z,225
2018-08-23T11:53:30.147Z,225
2018-08-23T11:54:40.419Z,225
2018-08-23T11:55:50.263Z,220
2018-08-23T11:57:00.412Z,225
2018-08-23T11:58:11.094Z,225
2018-08-23T11:59:21.750Z,235
2018-08-23T12:00:31.566Z,230
2018-08-23T12:01:41.699Z,230
2018-08-23T12:02:51.801Z,230
2018-08-23T12:04:01.902Z,230
2018-08-23T12:05:11.733Z,230
2018-08-23T12:06:21.826Z,235
2018-08-23T12:07:31.919Z,235
2018-08-23T12:08:42.027Z,235
2018-08-23T12:09:52.087Z,235
2018-08-23T12:11:02.007Z,230
2018-08-23T12:12:12.122Z,230
2018-08-23T12:13:22.207Z,230
2018-08-23T12:14:32.312Z,225
2018-08-23T12:15:42.909Z,220
2018-08-23T12:16:53.203Z,225
2018-08-23T12:18:03.332Z,225
2018-08-23T12:19:13.413Z,230
2018-08-23T12:20:23.523Z,230
2018-08-23T12:21:33.624Z,230
2018-08-23T12:22:43.711Z,225
2018-08-23T12:23:53.803Z,230
2018-08-23T12:25:03.648Z,230
2018-08-23T12:26:13.816Z,230
2018-08-23T12:27:23.982Z,230
2018-08-23T12:28:33.823Z,230
2018-08-23T12:29:44.045Z,230
2018-08-23T12:30:54.149Z,235
2018-08-23T12:32:04.415Z,235
2018-08-23T12:33:14.608Z,235
2018-08-23T12:34:24.815Z,235
2018-08-23T12:35:34.911Z,235
2018-08-23T12:36:45.026Z,235
2018-08-23T12:37:55.222Z,235
2018-08-23T12:39:05.676Z,230
2018-08-23T12:40:15.518Z,235
2018-08-23T12:41:25.365Z,235
2018-08-23T12:42:35.235Z,230
2018-08-23T12:43:45.563Z,230
2018-08-23T12:44:55.711Z,235
2018-08-23T12:46:05.817Z,240
2018-08-23T12:47:15.916Z,235
2018-08-23T12:48:26.026Z,230
2018-08-23T12:49:36.257Z,230
2018-08-23T12:50:46.093Z,225
2018-08-23T12:51:56.179Z,225
2018-08-23T12:53:06.296Z,235
2018-08-23T12:54:16.417Z,230
2018-08-23T12:55:26.504Z,230
2018-08-23T12:56:36.862Z,230
2018-08-23T12:57:46.999Z,230
2018-08-23T12:58:57.113Z,230
2018-08-23T13:00:07.213Z,225
2018-08-23T13:01:17.329Z,225
2018-08-23T13:02:27.599Z,225
2018-08-23T13:03:37.745Z,225
2018-08-23T13:04:47.301Z,220
2018-08-23T13:05:57.141Z,225
2018-08-23T13:07:07.014Z,225
2018-08-23T13:08:17.288Z,230
2018-08-23T13:09:27.193Z,220
2018-08-23T13:10:37.307Z,220
2018-08-23T13:11:47.165Z,225
2018-08-23T13:12:57.258Z,225
2018-08-23T13:14:07.345Z,220
2018-08-23T13:15:17.189Z,215
2018-08-23T13:16:27.265Z,215
2018-08-23T13:17:37.726Z,220
2018-08-23T13:18:47.936Z,220
2018-08-23T13:19:57.736Z,215
2018-08-23T13:21:07.862Z,215
2018-08-23T13:22:17.978Z,215
2018-08-23T13:23:28.070Z,135
2018-08-23T13:24:38.163Z,210
2018-08-23T13:25:48.269Z,215
2018-08-23T13:26:58.108Z,210
2018-08-23T13:28:07.971Z,205
2018-08-23T13:29:18.077Z,200
2018-08-23T13:30:28.045Z,165
2018-08-23T13:31:38.014Z,205
2018-08-23T13:32:48.111Z,205
2018-08-23T13:33:58.209Z,200
2018-08-23T13:35:08.312Z,200
2018-08-23T13:36:18.776Z,200
2018-08-23T13:37:28.545Z,200
2018-08-23T13:38:38.658Z,200
2018-08-23T13:39:48.778Z,195
2018-08-23T13:40:58.878Z,185
2018-08-23T13:42:09.439Z,190
2018-08-23T13:43:19.594Z,190
2018-08-23T13:44:29.432Z,190
2018-08-23T13:45:39.006Z,190
2018-08-23T13:46:49.106Z,190
2018-08-23T13:47:59.194Z,195
2018-08-23T13:49:09.033Z,190
2018-08-23T13:50:19.123Z,195
2018-08-23T13:51:29.240Z,190
2018-08-23T13:52:39.185Z,190
2018-08-23T13:53:49.524Z,185
2018-08-23T13:54:59.326Z,185
2018-08-23T13:56:09.204Z,185
2018-08-23T13:57:19.433Z,185
2018-08-23T13:58:29.547Z,185
2018-08-23T13:59:39.108Z,120
2018-08-23T14:00:48.944Z,115
2018-08-23T14:01:58.791Z,125
2018-08-23T14:03:08.921Z,175
2018-08-23T14:04:19.028Z,190
2018-08-23T14:05:29.347Z,185
2018-08-23T14:06:39.869Z,185
2018-08-23T14:07:50.417Z,190
2018-08-23T14:09:00.341Z,190
2018-08-23T14:10:10.466Z,190
2018-08-23T14:11:20.343Z,190
2018-08-23T14:12:30.427Z,185
2018-08-23T14:13:40.590Z,180
2018-08-23T14:14:50.702Z,155
2018-08-23T14:16:00.834Z,120
2018-08-23T14:17:10.679Z,120
2018-08-23T14:18:20.802Z,180
2018-08-23T14:19:31.410Z,185
2018-08-23T14:20:41.248Z,175
2018-08-23T14:21:51.355Z,165
2018-08-23T14:23:01.505Z,170
2018-08-23T14:24:11.669Z,115
2018-08-23T14:25:21.837Z,160
2018-08-23T14:26:31.987Z,170
2018-08-23T14:27:41.872Z,175
2018-08-23T14:28:51.976Z,175
2018-08-23T14:30:01.818Z,155
2018-08-23T14:31:11.991Z,115
2018-08-23T14:32:22.107Z,120
2018-08-23T14:33:31.949Z,170
2018-08-23T14:34:41.792Z,170
2018-08-23T14:35:51.640Z,170
2018-08-23T14:37:01.752Z,170
2018-08-23T14:38:11.885Z,170
2018-08-23T14:39:21.987Z,170
2018-08-23T14:40:32.753Z,170
2018-08-23T14:41:42.895Z,165
2018-08-23T14:42:53.043Z,165
2018-08-23T14:44:02.872Z,165
2018-08-23T14:45:12.956Z,165
2018-08-23T14:46:22.809Z,130
2018-08-23T14:47:32.771Z,110
2018-08-23T14:48:42.902Z,155
2018-08-23T14:49:52.997Z,150
2018-08-23T14:51:03.080Z,155
2018-08-23T14:52:13.200Z,155
2018-08-23T14:53:23.364Z,150
2018-08-23T14:54:33.541Z,110
2018-08-23T14:55:43.647Z,145
2018-08-23T14:56:53.537Z,150
2018-08-23T14:58:03.377Z,160
2018-08-23T14:59:14.083Z,155
2018-08-23T15:00:24.292Z,160
2018-08-23T15:01:34.564Z,155
2018-08-23T15:02:44.422Z,155
2018-08-23T15:03:54.242Z,150
2018-08-23T15:05:04.404Z,155
2018-08-23T15:06:14.513Z,150
2018-08-23T15:07:24.604Z,150
2018-08-23T15:08:34.685Z,150
2018-08-23T15:09:44.941Z,145
2018-08-23T15:10:55.090Z,145
2018-08-23T15:12:05.183Z,145
2018-08-23T15:13:15.037Z,145
2018-08-23T15:14:25.362Z,150
2018-08-23T15:15:35.632Z,145
2018-08-23T15:16:45.794Z,140
2018-08-23T15:17:55.628Z,140
2018-08-23T15:19:05.745Z,140
2018-08-23T15:20:15.841Z,145
2018-08-23T15:21:25.949Z,145
2018-08-23T15:22:36.054Z,140
2018-08-23T15:23:46.213Z,140
2018-08-23T15:24:56.324Z,135
2018-08-23T15:26:06.816Z,135
2018-08-23T15:27:17.975Z,135
2018-08-23T15:28:28.139Z,135
2018-08-23T15:29:38.226Z,135
2018-08-23T15:30:48.058Z,135
2018-08-23T15:31:58.152Z,135
2018-08-23T15:33:08.278Z,135
2018-08-23T15:34:18.296Z,130
2018-08-23T15:35:28.405Z,130
2018-08-23T15:36:38.498Z,130
2018-08-23T15:37:48.599Z,130
2018-08-23T15:38:58.469Z,125
2018-08-23T15:40:08.100Z,125
2018-08-23T15:41:18.228Z,125
2018-08-23T15:42:28.330Z,125
2018-08-23T15:43:37.912Z,125
2018-08-23T15:44:47.761Z,120
2018-08-23T15:45:57.944Z,120
2018-08-23T15:47:07.795Z,120
2018-08-23T15:48:17.967Z,120
2018-08-23T15:49:28.099Z,125
2018-08-23T15:50:38.246Z,120
2018-08-23T15:51:48.409Z,115
2018-08-23T15:52:58.511Z,115
2018-08-23T15:54:08.616Z,115
2018-08-23T15:55:19.289Z,115
2018-08-23T15:56:29.522Z,110
2018-08-23T15:57:39.639Z,115
2018-08-23T15:58:49.486Z,110
2018-08-23T15:59:59.340Z,110
2018-08-23T16:01:08.921Z,105
2018-08-23T16:02:18.756Z,105
2018-08-23T16:03:28.957Z,105
2018-08-23T16:04:39.066Z,105
2018-08-23T16:05:49.161Z,105
2018-08-23T16:06:59.034Z,100
2018-08-23T16:08:09.144Z,100
2018-08-23T16:09:19.259Z,100
2018-08-23T16:10:29.845Z,100
2018-08-23T16:11:39.944Z,100
2018-08-23T16:12:49.782Z,100
2018-08-23T16:13:59.872Z,95
2018-08-23T16:15:10.582Z,95
2018-08-23T16:16:20.697Z,100
2018-08-23T16:17:30.806Z,95
2018-08-23T16:18:40.915Z,95
2018-08-23T16:19:51.015Z,95
2018-08-23T16:21:01.178Z,95
2018-08-23T16:22:11.287Z,90
2018-08-23T16:23:21.411Z,90
2018-08-23T16:24:31.526Z,90
2018-08-23T16:25:41.633Z,85
2018-08-23T16:26:51.782Z,85
2018-08-23T16:28:01.907Z,85
2018-08-23T16:29:12.012Z,85
2018-08-23T16:30:22.129Z,80
2018-08-23T16:31:32.238Z,80
2018-08-23T16:32:42.363Z,80
2018-08-23T16:33:52.492Z,80
2018-08-23T16:35:02.121Z,75
2018-08-23T16:36:11.971Z,75
2018-08-23T16:37:21.832Z,75
2018-08-23T16:38:31.928Z,70
2018-08-23T16:39:41.779Z,70
2018-08-23T16:40:51.873Z,70
2018-08-23T16:42:02.000Z,70
2018-08-23T16:43:12.143Z,65
2018-08-23T16:44:22.310Z,65
2018-08-23T16:45:32.137Z,65
2018-08-23T16:46:41.967Z,60
2018-08-23T16:47:52.086Z,60
2018-08-23T16:49:02.203Z,60
2018-08-23T16:50:12.352Z,60
2018-08-23T16:51:22.447Z,60
2018-08-23T16:52:32.310Z,60